Time;durP1;ratioP1;P1;durP2;ratioP2;P2;SDS_P1;SDS_P2;PMS_P1;PMS_P2;Temp;Humidity;BMP_temperature;BMP_pressure;BME280_temperature;BME280_humidity;BME280_pressure;Samples;Min_cycle;Max_cycle;Signal;HPM_P1;HPM_P2
2022/11/11 00:01:25;;;;;;;17.17;8.43;;;11.20;99.90;;;;;;5108698;28;20028;-63
2022/11/11 00:03:54;;;;;;;14.18;7.90;;;11.20;99.90;;;;;;5052367;28;20137;-62
2022/11/11 00:06:19;;;;;;;14.35;9.35;;;11.20;99.90;;;;;;5104208;28;20043;-61
2022/11/11 00:08:47;;;;;;;14.82;8.25;;;11.20;99.90;;;;;;5100900;28;20404;-61
2022/11/11 00:11:14;;;;;;;13.68;8.55;;;11.20;99.90;;;;;;5103851;28;20058;-62
2022/11/11 00:13:41;;;;;;;13.32;8.45;;;11.20;99.90;;;;;;5103638;28;20036;-62
2022/11/11 00:16:13;;;;;;;14.93;9.10;;;11.30;99.90;;;;;;5067676;28;20462;-61
2022/11/11 00:26:49;;;;;;;17.30;9.18;;;11.20;99.90;;;;;;5104557;28;20085;-62
2022/11/11 00:29:14;;;;;;;15.55;8.85;;;11.20;99.90;;;;;;5082729;28;20112;-62
2022/11/11 00:32:21;;;;;;;12.00;8.30;;;11.30;99.90;;;;;;5100746;28;20044;-61
2022/11/11 00:34:25;;;;;;;13.30;8.40;;;11.20;99.90;;;;;;5103936;28;20048;-61
2022/11/11 00:36:51;;;;;;;13.05;8.48;;;11.20;99.90;;;;;;5103495;28;20063;-62
2022/11/11 00:39:17;;;;;;;13.18;8.52;;;11.30;99.90;;;;;;5104437;28;20055;-61
2022/11/11 00:41:42;;;;;;;14.32;8.68;;;11.20;99.90;;;;;;5101356;28;20378;-62
2022/11/11 00:44:08;;;;;;;15.50;9.25;;;11.20;99.90;;;;;;5104442;28;20047;-61
2022/11/11 00:52:02;;;;;;;14.45;8.50;;;11.20;99.90;;;;;;5107790;28;20460;-62
2022/11/11 00:54:27;;;;;;;12.90;9.38;;;11.10;99.90;;;;;;5101493;28;20032;-62
2022/11/11 00:56:53;;;;;;;16.80;9.77;;;11.10;99.90;;;;;;5100133;28;20047;-64
2022/11/11 00:59:19;;;;;;;14.40;9.55;;;11.00;99.90;;;;;;5102808;28;20028;-62
2022/11/11 01:01:44;;;;;;;16.85;10.07;;;10.90;99.90;;;;;;5081910;28;20061;-61
2022/11/11 01:04:10;;;;;;;15.50;9.70;;;10.90;99.90;;;;;;5098261;28;20035;-61
2022/11/11 01:06:35;;;;;;;14.55;9.80;;;10.80;99.90;;;;;;5083041;28;20039;-61
2022/11/11 01:09:05;;;;;;;16.65;9.68;;;10.80;99.90;;;;;;5083717;28;20112;-62
2022/11/11 01:11:31;;;;;;;19.38;11.13;;;10.70;99.90;;;;;;5102446;28;20075;-62
2022/11/11 01:13:57;;;;;;;14.40;10.15;;;10.70;99.90;;;;;;5106331;28;20067;-61
2022/11/11 01:16:25;;;;;;;16.35;10.55;;;10.60;99.90;;;;;;5088815;28;20032;-61
2022/11/11 01:18:52;;;;;;;15.48;11.10;;;10.60;99.90;;;;;;5100107;28;20373;-64
2022/11/11 01:21:22;;;;;;;16.92;11.27;;;10.50;99.90;;;;;;5100173;28;20024;-61
2022/11/11 01:23:48;;;;;;;14.95;10.80;;;10.50;99.90;;;;;;5105576;28;20039;-63
2022/11/11 01:26:23;;;;;;;17.35;11.93;;;10.50;99.90;;;;;;5087778;28;20048;-62
2022/11/11 01:28:51;;;;;;;16.95;11.98;;;10.40;99.90;;;;;;5082646;28;20130;-61
2022/11/11 01:31:18;;;;;;;16.80;12.50;;;10.40;99.90;;;;;;5102811;28;20461;-62
2022/11/11 01:33:44;;;;;;;16.08;12.13;;;10.40;99.90;;;;;;5099875;28;20039;-63
2022/11/11 01:36:16;;;;;;;19.38;12.10;;;10.30;99.90;;;;;;5102078;28;20136;-61
2022/11/11 01:38:42;;;;;;;23.80;14.30;;;10.30;99.90;;;;;;5099896;28;20423;-62
2022/11/11 01:43:56;;;;;;;15.73;12.63;;;10.20;99.90;;;;;;5080967;28;20040;-62
2022/11/11 01:46:42;;;;;;;19.17;13.88;;;10.20;99.90;;;;;;5101356;28;20100;-63
2022/11/11 01:49:39;;;;;;;21.80;14.70;;;10.20;99.90;;;;;;5102162;28;20461;-62
2022/11/11 01:52:14;;;;;;;22.42;15.38;;;10.20;99.90;;;;;;5106822;28;20047;-63
2022/11/11 01:54:52;;;;;;;21.42;15.50;;;10.10;99.90;;;;;;5101876;28;20035;-63
2022/11/11 01:57:50;;;;;;;22.83;15.25;;;10.20;99.90;;;;;;5097714;28;20043;-63
2022/11/11 02:00:17;;;;;;;24.23;16.33;;;10.10;99.90;;;;;;5077866;28;20047;-63
2022/11/11 02:03:08;;;;;;;21.88;17.02;;;10.10;99.90;;;;;;5079006;28;20071;-62
2022/11/11 02:05:44;;;;;;;23.30;17.40;;;10.20;99.90;;;;;;5094227;28;20391;-62
2022/11/11 02:08:32;;;;;;;22.67;17.33;;;10.10;99.90;;;;;;5081202;28;20048;-62
2022/11/11 02:14:34;;;;;;;24.17;17.52;;;10.00;99.90;;;;;;5101515;28;20042;-63
2022/11/11 02:16:50;;;;;;;25.50;18.70;;;10.10;99.90;;;;;;5098688;28;20052;-62
2022/11/11 02:19:22;;;;;;;24.30;18.50;;;10.00;99.90;;;;;;5083764;28;20576;-62
2022/11/11 02:21:57;;;;;;;24.08;18.75;;;10.00;99.90;;;;;;5088489;28;20346;-62
2022/11/11 02:24:25;;;;;;;21.55;18.45;;;10.10;99.90;;;;;;5105366;28;20387;-62
2022/11/11 02:26:53;;;;;;;24.08;18.33;;;10.10;99.90;;;;;;5083345;28;20045;-62
2022/11/11 02:29:21;;;;;;;28.20;19.05;;;10.00;99.90;;;;;;5080650;28;20496;-62
2022/11/11 02:31:47;;;;;;;25.40;19.80;;;10.00;99.90;;;;;;5103175;28;20461;-62
2022/11/11 02:34:12;;;;;;;24.23;19.08;;;10.00;99.90;;;;;;5100111;28;20040;-62
2022/11/11 02:36:39;;;;;;;22.73;19.08;;;10.00;99.90;;;;;;5107526;28;20032;-62
2022/11/11 02:39:05;;;;;;;24.05;19.20;;;10.00;99.90;;;;;;5082952;28;20055;-63
2022/11/11 02:44:14;;;;;;;22.80;18.88;;;10.00;99.90;;;;;;5095676;28;20123;-62
2022/11/11 02:46:40;;;;;;;24.40;19.27;;;10.00;99.90;;;;;;5086117;28;20353;-63
2022/11/11 02:49:06;;;;;;;23.30;18.88;;;10.00;99.90;;;;;;5078657;28;20027;-62
2022/11/11 02:51:31;;;;;;;25.67;19.38;;;10.00;99.90;;;;;;5099353;28;20097;-62
2022/11/11 02:54:01;;;;;;;26.50;20.98;;;10.00;99.90;;;;;;5087057;28;20318;-61
2022/11/11 02:59:12;;;;;;;25.90;20.83;;;10.00;99.90;;;;;;5085805;28;20040;-62
2022/11/11 03:01:38;;;;;;;26.50;21.08;;;10.00;99.90;;;;;;5098842;28;20135;-62
2022/11/11 03:04:04;;;;;;;29.58;20.60;;;10.00;99.90;;;;;;5093876;28;20070;-62
2022/11/11 03:06:30;;;;;;;27.55;21.23;;;10.00;99.90;;;;;;5081418;28;20440;-62
2022/11/11 03:08:55;;;;;;;27.95;20.20;;;10.00;99.90;;;;;;5081051;28;20111;-62
2022/11/11 03:11:27;;;;;;;27.30;21.48;;;10.00;99.90;;;;;;5101461;28;20091;-62
2022/11/11 03:13:57;;;;;;;29.25;21.75;;;10.00;99.90;;;;;;5084691;28;20054;-62
2022/11/11 03:19:07;;;;;;;29.52;22.10;;;9.90;99.90;;;;;;5080471;28;20046;-63
2022/11/11 03:21:33;;;;;;;29.90;22.08;;;9.80;99.90;;;;;;5082901;28;20031;-62
2022/11/11 03:23:58;;;;;;;27.90;22.38;;;9.90;99.90;;;;;;5099065;28;20468;-62
2022/11/11 03:26:24;;;;;;;31.67;22.08;;;9.90;99.90;;;;;;5097207;28;20036;-62
2022/11/11 03:28:50;;;;;;;30.58;22.60;;;9.90;99.90;;;;;;5081772;28;20379;-62
2022/11/11 03:31:16;;;;;;;26.35;21.75;;;9.80;99.90;;;;;;5097602;28;20035;-62
2022/11/11 03:33:41;;;;;;;29.90;23.33;;;9.80;99.90;;;;;;5086887;28;20040;-62
2022/11/11 03:36:07;;;;;;;28.80;23.90;;;9.80;99.90;;;;;;5085099;28;20433;-61
2022/11/11 03:38:33;;;;;;;27.75;23.20;;;9.80;99.90;;;;;;5104400;28;20123;-62
2022/11/11 03:40:58;;;;;;;31.25;23.88;;;9.80;99.90;;;;;;5080673;28;20143;-62
2022/11/11 03:43:26;;;;;;;28.92;22.20;;;9.80;99.90;;;;;;5087246;28;20089;-62
2022/11/11 03:45:54;;;;;;;32.35;23.55;;;9.80;99.90;;;;;;5088600;28;20061;-61
2022/11/11 03:48:20;;;;;;;27.27;23.20;;;9.80;99.90;;;;;;5108775;28;20028;-61
2022/11/11 03:50:47;;;;;;;27.02;23.25;;;9.90;99.90;;;;;;5081120;28;20040;-62
2022/11/11 03:53:13;;;;;;;29.38;22.98;;;10.00;99.90;;;;;;5105720;28;20027;-62
2022/11/11 03:55:40;;;;;;;29.42;23.50;;;10.00;99.90;;;;;;5085380;28;20040;-61
2022/11/11 03:58:06;;;;;;;32.38;24.85;;;10.00;99.90;;;;;;5100394;28;20036;-61
2022/11/11 04:00:31;;;;;;;27.75;24.13;;;10.10;99.90;;;;;;5085952;28;20050;-61
2022/11/11 04:11:24;;;;;;;31.35;24.58;;;10.20;99.90;;;;;;5102860;28;19924;-62
2022/11/11 04:16:35;;;;;;;28.27;24.17;;;10.30;99.90;;;;;;5102100;28;20097;-62
2022/11/11 04:21:45;;;;;;;27.80;24.77;;;10.30;99.90;;;;;;5106390;28;20039;-62
2022/11/11 04:27:08;;;;;;;32.90;25.08;;;10.50;99.90;;;;;;5106056;28;20048;-64
2022/11/11 04:29:34;;;;;;;32.33;25.33;;;10.40;99.90;;;;;;5089646;28;20344;-62
2022/11/11 04:34:52;;;;;;;31.33;25.23;;;10.50;99.90;;;;;;5090900;28;20039;-62
2022/11/11 04:37:18;;;;;;;29.35;24.70;;;10.50;99.90;;;;;;5086004;28;20044;-61
2022/11/11 04:42:30;;;;;;;29.48;25.15;;;10.60;99.90;;;;;;5084319;28;20084;-62
2022/11/11 04:48:04;;;;;;;32.28;24.73;;;10.50;99.90;;;;;;5083382;28;20047;-62
2022/11/11 04:50:36;;;;;;;27.67;23.60;;;10.50;99.90;;;;;;5074353;28;20384;-63
2022/11/11 04:53:03;;;;;;;28.95;24.33;;;10.50;99.90;;;;;;5098214;28;20043;-63
2022/11/11 04:58:14;;;;;;;32.65;24.98;;;10.50;99.90;;;;;;5087115;28;20039;-63
2022/11/11 05:00:40;;;;;;;30.58;24.20;;;10.40;99.90;;;;;;5089350;28;20521;-62
2022/11/11 05:03:14;;;;;;;30.75;24.83;;;10.40;99.90;;;;;;5103161;28;20118;-62
2022/11/11 05:11:20;;;;;;;30.05;24.60;;;10.30;99.90;;;;;;5097774;28;20383;-62
2022/11/11 05:22:35;;;;;;;29.70;25.85;;;10.20;99.90;;;;;;5104996;28;20047;-61
2022/11/11 05:27:45;;;;;;;;;;;10.30;99.90;;;;;;5102233;28;20071;-62
2022/11/11 05:30:13;;;;;;;29.75;25.02;;;10.30;99.90;;;;;;5083092;28;19959;-63
2022/11/11 05:32:39;;;;;;;33.60;25.48;;;10.40;99.90;;;;;;5104635;28;20035;-62
2022/11/11 05:35:06;;;;;;;30.38;24.30;;;10.40;99.90;;;;;;5103557;28;20035;-64
2022/11/11 05:37:31;;;;;;;28.20;23.98;;;10.40;99.90;;;;;;5080772;28;20039;-63
2022/11/11 05:39:57;;;;;;;28.83;22.95;;;10.40;99.90;;;;;;5085259;28;20063;-62
2022/11/11 05:42:22;;;;;;;27.95;24.58;;;10.50;99.90;;;;;;5087729;28;21373;-62
2022/11/11 05:44:48;;;;;;;29.63;24.55;;;10.50;99.90;;;;;;5099815;28;20131;-63
2022/11/11 05:47:14;;;;;;;30.15;24.27;;;10.50;99.90;;;;;;5104013;28;20473;-62
2022/11/11 05:49:39;;;;;;;30.00;24.65;;;10.40;99.90;;;;;;5082434;28;20039;-62
2022/11/11 05:52:06;;;;;;;32.78;23.33;;;10.50;99.90;;;;;;5107739;28;20039;-63
2022/11/11 05:54:32;;;;;;;29.23;23.45;;;10.50;99.90;;;;;;5099211;28;20032;-61
2022/11/11 05:56:59;;;;;;;29.15;23.33;;;10.50;99.90;;;;;;5086467;28;20051;-62
2022/11/11 05:59:25;;;;;;;28.75;23.13;;;10.50;99.90;;;;;;5099138;28;20047;-63
2022/11/11 06:01:50;;;;;;;29.23;22.45;;;10.50;99.90;;;;;;5107080;28;20043;-63
2022/11/11 06:04:16;;;;;;;26.73;21.60;;;10.50;99.90;;;;;;5108854;28;20103;-62
2022/11/11 06:06:41;;;;;;;28.17;22.00;;;10.60;99.90;;;;;;5090961;28;20032;-63
2022/11/11 06:09:07;;;;;;;28.95;22.05;;;10.50;99.90;;;;;;5105326;28;20144;-64
2022/11/11 06:11:33;;;;;;;28.92;22.70;;;10.50;99.90;;;;;;5089286;28;20042;-62
2022/11/11 06:13:59;;;;;;;33.80;22.48;;;10.50;99.90;;;;;;5084048;28;20050;-62
2022/11/11 06:16:24;;;;;;;24.48;21.27;;;10.50;99.90;;;;;;5103789;28;20044;-62
2022/11/11 06:18:50;;;;;;;26.15;21.85;;;10.60;99.90;;;;;;5084181;28;20051;-63
2022/11/11 06:21:16;;;;;;;25.92;21.30;;;10.60;99.90;;;;;;5105687;28;20067;-62
2022/11/11 06:23:43;;;;;;;27.95;21.08;;;10.60;99.90;;;;;;5099828;28;20077;-62
2022/11/11 06:26:13;;;;;;;28.20;20.92;;;10.50;99.90;;;;;;5100917;28;20051;-62
2022/11/11 06:28:38;;;;;;;24.90;21.05;;;10.60;99.90;;;;;;5084847;28;20372;-63
2022/11/11 06:31:06;;;;;;;25.48;21.10;;;10.60;99.90;;;;;;5065042;28;20036;-62
2022/11/11 06:33:33;;;;;;;25.55;21.17;;;10.60;99.90;;;;;;5080420;28;20361;-62
2022/11/11 06:35:58;;;;;;;29.38;21.58;;;10.60;99.90;;;;;;5083307;28;20376;-62
2022/11/11 06:38:24;;;;;;;27.30;20.77;;;10.60;99.90;;;;;;5082327;28;20036;-63
2022/11/11 06:40:49;;;;;;;27.85;20.80;;;10.60;99.90;;;;;;5097723;28;20085;-63
2022/11/11 06:43:18;;;;;;;23.63;20.95;;;10.60;99.90;;;;;;5082707;28;20043;-64
2022/11/11 06:45:44;;;;;;;24.63;20.52;;;10.60;99.90;;;;;;5102742;28;20510;-62
2022/11/11 06:48:10;;;;;;;23.23;19.45;;;10.70;99.90;;;;;;5080700;28;20040;-65
2022/11/11 06:50:36;;;;;;;30.75;20.38;;;10.60;99.90;;;;;;5080460;28;20032;-66
2022/11/11 06:53:06;;;;;;;27.58;20.80;;;10.70;99.90;;;;;;5097991;28;20055;-67
2022/11/11 06:55:33;;;;;;;23.23;20.67;;;10.70;99.90;;;;;;5108460;28;20485;-66
2022/11/11 06:58:15;;;;;;;27.77;20.63;;;10.70;99.90;;;;;;5105799;28;20044;-63
2022/11/11 07:00:42;;;;;;;26.92;20.60;;;10.70;99.90;;;;;;5097815;28;20036;-64
2022/11/11 07:03:11;;;;;;;24.17;20.15;;;10.70;99.90;;;;;;5087826;28;20047;-61
2022/11/11 07:05:36;;;;;;;24.98;20.90;;;10.70;99.90;;;;;;5108198;28;20116;-61
2022/11/11 07:08:08;;;;;;;24.42;19.52;;;10.70;99.90;;;;;;5107697;28;20075;-61
2022/11/11 07:10:37;;;;;;;23.70;20.75;;;10.70;99.90;;;;;;5106401;28;20430;-62
2022/11/11 07:13:03;;;;;;;26.50;19.60;;;10.70;99.90;;;;;;5108097;28;20061;-62
2022/11/11 07:15:30;;;;;;;22.80;19.67;;;10.70;99.90;;;;;;5094286;28;20040;-62
2022/11/11 07:17:55;;;;;;;32.72;19.95;;;10.70;99.90;;;;;;5101279;28;20111;-64
2022/11/11 07:20:21;;;;;;;25.13;19.35;;;10.80;99.90;;;;;;5104118;28;20101;-62
2022/11/11 07:22:47;;;;;;;25.52;20.63;;;10.80;99.90;;;;;;5104496;28;20024;-63
2022/11/11 07:25:12;;;;;;;24.65;19.27;;;10.80;99.90;;;;;;5104870;28;20039;-62
2022/11/11 07:27:39;;;;;;;22.85;19.02;;;10.80;99.90;;;;;;5104803;28;20042;-63
2022/11/11 07:30:05;;;;;;;22.23;19.67;;;10.80;99.90;;;;;;5102102;28;20046;-63
2022/11/11 07:32:31;;;;;;;29.95;20.77;;;10.80;99.90;;;;;;5099789;28;20040;-63
2022/11/11 07:34:57;;;;;;;24.70;19.58;;;10.80;99.90;;;;;;5107128;28;20081;-63
2022/11/11 07:37:22;;;;;;;25.83;20.17;;;10.80;99.90;;;;;;5084455;28;20031;-63
2022/11/11 07:39:48;;;;;;;24.55;18.85;;;10.80;99.90;;;;;;5086116;28;20039;-63
2022/11/11 07:42:24;;;;;;;26.33;19.38;;;10.80;99.90;;;;;;5084798;28;20432;-62
2022/11/11 07:44:50;;;;;;;24.15;18.80;;;10.90;99.90;;;;;;5067640;28;20336;-62
2022/11/11 07:47:21;;;;;;;25.58;18.88;;;10.80;99.90;;;;;;5066694;28;20048;-62
2022/11/11 07:49:47;;;;;;;25.65;18.55;;;10.80;99.90;;;;;;5086575;28;20039;-65
2022/11/11 07:52:12;;;;;;;21.27;18.95;;;10.80;99.90;;;;;;5085371;28;20388;-62
2022/11/11 07:54:51;;;;;;;25.70;18.15;;;10.80;99.90;;;;;;5085314;28;20452;-62
2022/11/11 07:57:16;;;;;;;27.88;17.63;;;10.80;99.90;;;;;;5089994;28;20086;-64
2022/11/11 07:59:42;;;;;;;24.52;18.85;;;10.90;99.90;;;;;;5101766;28;20112;-62
2022/11/11 08:02:12;;;;;;;22.23;18.15;;;10.90;99.90;;;;;;5103596;28;20122;-61
2022/11/11 08:04:37;;;;;;;22.88;18.05;;;10.90;99.90;;;;;;5103434;28;20191;-62
2022/11/11 08:07:03;;;;;;;21.70;18.02;;;10.90;99.90;;;;;;5088287;28;20503;-63
2022/11/11 08:09:29;;;;;;;23.63;17.52;;;10.90;99.90;;;;;;5109218;28;20047;-62
2022/11/11 08:14:39;;;;;;;20.58;16.98;;;10.90;99.90;;;;;;5101482;28;20135;-62
2022/11/11 08:17:04;;;;;;;21.38;17.60;;;10.90;99.90;;;;;;5105684;28;20176;-62
2022/11/11 08:19:30;;;;;;;21.27;17.73;;;11.00;99.90;;;;;;5105659;28;20035;-62
2022/11/11 08:21:56;;;;;;;23.42;17.75;;;11.00;99.90;;;;;;5099652;28;20031;-62
2022/11/11 08:24:21;;;;;;;20.30;17.25;;;11.00;99.90;;;;;;5102790;28;20127;-62
2022/11/11 08:27:08;;;;;;;23.13;18.05;;;11.00;99.90;;;;;;5081240;28;20043;-62
2022/11/11 08:29:34;;;;;;;21.55;16.05;;;10.90;99.90;;;;;;5081937;28;20044;-62
2022/11/11 08:31:59;;;;;;;20.15;16.38;;;11.00;99.90;;;;;;5101359;28;20368;-63
2022/11/11 08:34:25;;;;;;;19.60;16.13;;;11.00;99.90;;;;;;5080281;28;20445;-62
2022/11/11 08:36:50;;;;;;;20.65;15.85;;;11.00;99.90;;;;;;5102794;28;20043;-62
2022/11/11 08:39:16;;;;;;;22.10;15.15;;;11.00;99.90;;;;;;5081107;28;20043;-64
2022/11/11 08:41:42;;;;;;;20.92;15.05;;;11.00;99.90;;;;;;5084587;28;20430;-63
2022/11/11 08:44:08;;;;;;;24.25;15.35;;;11.10;99.90;;;;;;5098826;28;20564;-61
2022/11/11 08:46:34;;;;;;;18.50;15.30;;;11.10;99.90;;;;;;5085185;28;20471;-62
2022/11/11 08:49:00;;;;;;;21.55;14.95;;;11.20;99.90;;;;;;5086615;28;20048;-62
2022/11/11 08:51:26;;;;;;;18.73;14.90;;;11.20;99.90;;;;;;5082733;28;20036;-62
2022/11/11 08:53:52;;;;;;;21.98;14.88;;;11.20;99.90;;;;;;5104201;28;20039;-62
2022/11/11 08:56:17;;;;;;;19.85;15.25;;;11.20;99.90;;;;;;5086054;28;20048;-62
2022/11/11 08:58:43;;;;;;;18.02;14.55;;;11.30;99.90;;;;;;5082621;28;20070;-62
2022/11/11 09:01:13;;;;;;;16.67;13.70;;;11.30;99.90;;;;;;5085040;28;20136;-64
2022/11/11 09:03:42;;;;;;;18.13;14.20;;;11.30;99.90;;;;;;5096625;28;20039;-62
2022/11/11 09:06:08;;;;;;;17.77;14.45;;;11.30;99.90;;;;;;5100559;28;20050;-62
2022/11/11 09:08:34;;;;;;;16.55;14.63;;;11.30;99.90;;;;;;5085020;28;20555;-62
2022/11/11 09:11:00;;;;;;;20.83;14.73;;;11.40;99.90;;;;;;5084971;28;20048;-64
2022/11/11 09:13:25;;;;;;;17.17;13.98;;;11.40;99.90;;;;;;5099668;28;20525;-63
2022/11/11 09:15:53;;;;;;;18.40;14.07;;;11.40;99.90;;;;;;5099260;28;20142;-62
2022/11/11 09:18:19;;;;;;;18.83;14.50;;;11.50;99.90;;;;;;5078709;28;20360;-62
2022/11/11 09:20:44;;;;;;;20.02;14.10;;;11.50;99.90;;;;;;5089601;28;20031;-62
2022/11/11 09:23:10;;;;;;;18.55;14.18;;;11.50;99.90;;;;;;5087077;28;20112;-63
2022/11/11 09:25:35;;;;;;;16.85;13.43;;;11.50;99.90;;;;;;5102209;28;20032;-62
2022/11/11 09:28:01;;;;;;;20.17;15.07;;;11.60;99.90;;;;;;5100470;28;20523;-64
2022/11/11 09:30:28;;;;;;;18.83;14.52;;;11.60;99.90;;;;;;5087375;28;20036;-62
2022/11/11 09:32:54;;;;;;;16.42;14.07;;;11.60;99.90;;;;;;5087974;28;20040;-62
2022/11/11 09:35:20;;;;;;;17.10;14.65;;;11.70;99.90;;;;;;5098814;28;20306;-61
2022/11/11 09:37:56;;;;;;;16.92;14.77;;;11.70;99.90;;;;;;5108276;28;20044;-63
2022/11/11 09:40:24;;;;;;;18.05;13.82;;;11.70;99.90;;;;;;5106040;28;20055;-63
2022/11/11 09:43:08;;;;;;;16.23;13.30;;;11.80;99.90;;;;;;5109008;28;20079;-63
2022/11/11 09:46:09;;;;;;;16.27;13.93;;;11.90;99.90;;;;;;5086480;28;20477;-62
2022/11/11 09:48:59;;;;;;;17.45;14.23;;;11.90;99.90;;;;;;5088030;28;20134;-62
2022/11/11 09:51:36;;;;;;;17.63;13.48;;;11.80;99.90;;;;;;5102133;28;20035;-62
2022/11/11 09:54:07;;;;;;;16.40;13.32;;;11.90;99.90;;;;;;5086727;28;20039;-64
2022/11/11 09:56:33;;;;;;;15.32;13.00;;;11.90;99.90;;;;;;5099064;28;20044;-64
2022/11/11 09:59:07;;;;;;;18.40;13.45;;;12.00;99.90;;;;;;5070201;28;20040;-62
2022/11/11 10:01:43;;;;;;;17.77;13.68;;;12.00;99.90;;;;;;5100192;28;20076;-63
2022/11/11 10:04:19;;;;;;;16.73;13.15;;;12.00;99.90;;;;;;5067795;28;20040;-63
2022/11/11 10:06:47;;;;;;;18.75;13.68;;;12.00;99.90;;;;;;5083958;28;20046;-62
2022/11/11 10:09:27;;;;;;;19.08;13.55;;;12.10;99.90;;;;;;5103259;28;20039;-62
2022/11/11 10:12:10;;;;;;;14.30;12.77;;;12.10;99.90;;;;;;5079315;28;20057;-62
2022/11/11 10:14:40;;;;;;;15.85;13.07;;;12.10;99.90;;;;;;5097163;28;20319;-63
2022/11/11 10:17:30;;;;;;;16.90;12.85;;;12.20;99.90;;;;;;5081230;28;20103;-64
2022/11/11 10:20:22;;;;;;;15.90;12.70;;;12.20;99.90;;;;;;5101981;28;20458;-63
2022/11/11 10:22:58;;;;;;;15.32;12.60;;;12.30;99.90;;;;;;5068520;28;20115;-62
2022/11/11 10:25:27;;;;;;;15.05;12.63;;;12.30;99.90;;;;;;5096526;28;20040;-62
2022/11/11 10:27:57;;;;;;;15.55;11.82;;;12.30;99.90;;;;;;5104445;28;20055;-64
2022/11/11 10:30:28;;;;;;;14.20;12.43;;;12.40;99.90;;;;;;5101900;28;20099;-64
2022/11/11 10:33:01;;;;;;;14.95;12.75;;;12.30;99.90;;;;;;5079218;28;20042;-63
2022/11/11 10:35:29;;;;;;;15.40;12.48;;;12.40;99.90;;;;;;5078418;28;20103;-64
2022/11/11 10:38:05;;;;;;;15.98;12.10;;;12.40;99.90;;;;;;5097853;28;20567;-63
2022/11/11 10:40:46;;;;;;;16.42;12.43;;;12.40;99.90;;;;;;5061821;28;20126;-62
2022/11/11 10:43:25;;;;;;;15.82;12.70;;;12.40;99.90;;;;;;5060846;28;20109;-63
2022/11/11 10:46:14;;;;;;;16.35;12.80;;;12.40;99.90;;;;;;5084630;28;20127;-62
2022/11/11 10:49:03;;;;;;;15.40;12.25;;;12.40;99.90;;;;;;5077178;28;20097;-63
2022/11/11 10:51:38;;;;;;;17.17;12.25;;;12.40;99.90;;;;;;5049058;28;20341;-62
2022/11/11 10:54:20;;;;;;;14.32;12.38;;;12.50;99.90;;;;;;5059949;28;20063;-62
2022/11/11 10:56:58;;;;;;;16.38;11.98;;;12.40;99.90;;;;;;5081119;28;20080;-62
2022/11/11 10:59:40;;;;;;;16.65;11.48;;;12.40;99.90;;;;;;5062373;28;20047;-62
2022/11/11 11:02:16;;;;;;;14.32;11.70;;;12.40;99.90;;;;;;5065069;28;20051;-63
2022/11/11 11:05:00;;;;;;;15.60;11.50;;;12.50;99.90;;;;;;5061225;28;20063;-63
2022/11/11 11:07:42;;;;;;;13.93;11.55;;;12.50;99.90;;;;;;5080247;28;20039;-63
2022/11/11 11:10:13;;;;;;;13.88;11.35;;;12.40;99.90;;;;;;5083413;28;20033;-62
2022/11/11 11:12:47;;;;;;;14.32;11.00;;;12.50;99.90;;;;;;5063808;28;20180;-64
2022/11/11 11:15:38;;;;;;;13.30;11.25;;;12.50;99.90;;;;;;5063175;28;20384;-63
2022/11/11 11:18:17;;;;;;;15.63;11.23;;;12.50;99.90;;;;;;5076940;28;20044;-61
2022/11/11 11:20:59;;;;;;;14.07;10.95;;;12.50;99.90;;;;;;5078254;28;20103;-63
2022/11/11 11:23:38;;;;;;;14.00;11.60;;;12.50;99.90;;;;;;5082882;28;20101;-65
2022/11/11 11:26:05;;;;;;;12.77;11.13;;;12.50;99.90;;;;;;5065994;28;20090;-63
2022/11/11 11:28:33;;;;;;;12.73;11.05;;;12.50;99.90;;;;;;5083484;28;20052;-62
2022/11/11 11:31:02;;;;;;;14.57;11.60;;;12.50;99.90;;;;;;5044513;28;20072;-62
2022/11/11 11:33:49;;;;;;;15.82;11.55;;;12.50;99.90;;;;;;5062500;28;20047;-62
2022/11/11 11:36:17;;;;;;;13.65;12.25;;;12.50;99.90;;;;;;5080973;28;20602;-62
2022/11/11 11:38:54;;;;;;;13.65;11.23;;;12.40;99.90;;;;;;5060880;28;20106;-62
2022/11/11 11:41:40;;;;;;;15.43;12.15;;;12.40;99.90;;;;;;5059665;28;20047;-63
2022/11/11 11:44:29;;;;;;;14.25;11.40;;;12.40;99.90;;;;;;5063317;28;20105;-62
2022/11/11 11:47:18;;;;;;;17.85;12.50;;;12.30;99.90;;;;;;5057739;28;20491;-63
2022/11/11 11:49:56;;;;;;;13.98;11.77;;;12.20;99.90;;;;;;5063496;28;20374;-61
2022/11/11 11:52:37;;;;;;;12.93;11.45;;;12.30;99.90;;;;;;5061283;28;20040;-62
2022/11/11 11:55:20;;;;;;;13.10;11.27;;;12.30;99.90;;;;;;5080077;28;20452;-62
2022/11/11 11:57:52;;;;;;;13.10;11.18;;;12.30;99.90;;;;;;5083646;28;20163;-61
2022/11/11 12:00:20;;;;;;;13.57;12.05;;;12.30;99.90;;;;;;5050205;28;20116;-62
2022/11/11 12:03:07;;;;;;;13.80;11.55;;;12.30;99.90;;;;;;5063235;28;20105;-62
2022/11/11 12:05:43;;;;;;;12.63;11.05;;;12.30;99.90;;;;;;5052149;28;20483;-65
2022/11/11 12:08:42;;;;;;;14.55;11.85;;;12.30;99.90;;;;;;5086660;28;20051;-61
2022/11/11 12:11:20;;;;;;;16.45;12.60;;;12.30;99.90;;;;;;5088438;28;20040;-61
2022/11/11 12:14:24;;;;;;;13.25;11.48;;;12.30;99.90;;;;;;5078075;28;20040;-62
2022/11/11 12:17:01;;;;;;;14.77;11.95;;;12.30;99.90;;;;;;5080361;28;20389;-60
2022/11/11 12:19:52;;;;;;;13.95;12.40;;;12.30;99.90;;;;;;5080732;28;20112;-62
2022/11/11 12:22:47;;;;;;;13.98;12.23;;;12.40;99.90;;;;;;5045687;28;20032;-62
2022/11/11 12:25:38;;;;;;;14.93;12.65;;;12.40;99.90;;;;;;5060898;28;20048;-62
2022/11/11 12:28:39;;;;;;;13.20;11.82;;;12.40;99.90;;;;;;5073516;28;20055;-62
2022/11/11 12:31:13;;;;;;;13.18;11.70;;;12.40;99.90;;;;;;5081170;28;20031;-61
2022/11/11 12:33:45;;;;;;;15.20;12.23;;;12.40;99.90;;;;;;5062956;28;20039;-62
2022/11/11 12:36:44;;;;;;;14.27;12.18;;;12.50;99.90;;;;;;5080637;28;20048;-62
2022/11/11 12:39:21;;;;;;;15.00;11.80;;;12.40;99.90;;;;;;5078160;28;20043;-62
2022/11/11 12:42:05;;;;;;;14.40;11.18;;;12.40;99.90;;;;;;5091785;28;20066;-62
2022/11/11 12:45:07;;;;;;;13.95;11.00;;;12.50;99.90;;;;;;5105176;28;20063;-61
2022/11/11 12:47:47;;;;;;;13.13;11.70;;;12.50;99.90;;;;;;5096153;28;20144;-62
2022/11/11 12:50:34;;;;;;;13.75;11.68;;;12.50;99.90;;;;;;5108376;28;20071;-63
2022/11/11 12:53:23;;;;;;;13.70;11.10;;;12.50;99.90;;;;;;5104322;28;20036;-62
2022/11/11 12:56:26;;;;;;;13.70;11.45;;;12.50;99.90;;;;;;5086875;28;20036;-63
2022/11/11 12:59:01;;;;;;;14.30;10.85;;;12.50;99.90;;;;;;5075143;28;20043;-64
2022/11/11 13:01:50;;;;;;;12.52;11.15;;;12.60;99.90;;;;;;5114573;28;20093;-63
2022/11/11 13:04:34;;;;;;;13.60;11.60;;;12.70;99.90;;;;;;5104952;28;20486;-63
2022/11/11 13:07:26;;;;;;;13.57;11.10;;;12.70;99.90;;;;;;5091668;28;20538;-62
2022/11/11 13:10:02;;;;;;;13.00;10.88;;;12.70;99.90;;;;;;5104606;28;20039;-64
2022/11/11 13:12:39;;;;;;;12.80;10.57;;;12.70;99.90;;;;;;5106296;28;20436;-61
2022/11/11 13:15:19;;;;;;;12.80;10.32;;;12.80;99.90;;;;;;5090096;28;20047;-62
2022/11/11 13:17:45;;;;;;;14.60;10.48;;;12.80;99.90;;;;;;5102393;28;20043;-62
2022/11/11 13:20:32;;;;;;;13.32;11.45;;;12.80;99.90;;;;;;5104578;28;20024;-64
2022/11/11 13:22:57;;;;;;;12.60;10.88;;;12.90;99.90;;;;;;5099029;28;20028;-64
2022/11/11 13:25:27;;;;;;;15.52;12.52;;;12.90;99.90;;;;;;5087847;28;20444;-62
2022/11/11 13:28:00;;;;;;;12.20;10.80;;;12.90;99.90;;;;;;5111768;28;20055;-61
2022/11/11 13:30:44;;;;;;;12.70;10.80;;;12.90;99.90;;;;;;5080476;28;20396;-61
2022/11/11 13:33:14;;;;;;;14.80;11.45;;;13.00;99.90;;;;;;5087625;28;20350;-60
2022/11/11 13:36:03;;;;;;;14.07;10.20;;;13.00;99.90;;;;;;5101121;28;20039;-62
2022/11/11 13:38:38;;;;;;;14.32;10.30;;;13.10;99.90;;;;;;5080332;28;20031;-61
2022/11/11 13:41:06;;;;;;;11.57;10.30;;;13.20;99.90;;;;;;5105638;28;20050;-60
2022/11/11 13:43:40;;;;;;;12.05;9.85;;;13.20;99.90;;;;;;5114595;28;20043;-60
2022/11/11 13:46:14;;;;;;;14.05;11.13;;;13.20;99.90;;;;;;5097242;28;20053;-61
2022/11/11 13:48:47;;;;;;;14.98;10.35;;;13.20;99.90;;;;;;5115820;28;20050;-61
2022/11/11 13:51:21;;;;;;;11.50;10.00;;;13.20;99.90;;;;;;5115789;28;20043;-60
2022/11/11 13:53:48;;;;;;;13.40;9.88;;;13.30;99.90;;;;;;5115226;28;20355;-60
2022/11/11 13:56:35;;;;;;;13.27;10.73;;;13.30;99.90;;;;;;5114987;28;20046;-60
2022/11/11 13:59:01;;;;;;;27.40;12.25;;;13.30;99.90;;;;;;5108703;28;20405;-61
2022/11/11 14:01:36;;;;;;;14.48;10.75;;;13.30;99.90;;;;;;5086580;28;20055;-61
2022/11/11 14:04:09;;;;;;;13.68;10.05;;;13.30;99.90;;;;;;5082778;28;20031;-63
2022/11/11 14:07:06;;;;;;;15.05;10.45;;;13.20;99.90;;;;;;5103893;28;20116;-60